createdAt,value
2023-06-17T00:00:09.826Z,17.50
2023-06-17T00:01:16.323Z,17.50
2023-06-17T00:02:20.076Z,17.40
2023-06-17T00:03:22.778Z,17.40
2023-06-17T00:04:26.418Z,17.40
2023-06-17T00:05:31.330Z,17.40
2023-06-17T00:06:33.915Z,17.40
2023-06-17T00:07:37.416Z,17.40
2023-06-17T00:08:41.941Z,17.40
2023-06-17T00:09:45.578Z,17.30
2023-06-17T00:10:49.443Z,17.30
2023-06-17T00:11:52.731Z,17.30
2023-06-17T00:12:56.252Z,17.30
2023-06-17T00:14:01.730Z,17.30
2023-06-17T00:15:07.213Z,17.20
2023-06-17T00:16:10.392Z,17.20
2023-06-17T00:17:13.964Z,17.20
2023-06-17T00:18:20.818Z,17.20
2023-06-17T00:19:25.825Z,17.10
2023-06-17T00:20:28.258Z,17.10
2023-06-17T00:21:33.181Z,17.10
2023-06-17T00:22:36.306Z,17.10
2023-06-17T00:23:39.974Z,17.10
2023-06-17T00:24:42.668Z,17.10
2023-06-17T00:25:46.112Z,17.00
2023-06-17T00:26:49.232Z,17.00
2023-06-17T00:27:52.955Z,17.00
2023-06-17T00:28:55.441Z,17.00
2023-06-17T00:30:00.908Z,17.00
2023-06-17T00:31:05.971Z,17.00
2023-06-17T00:32:08.489Z,17.00
2023-06-17T00:33:12.123Z,17.00
2023-06-17T00:34:14.896Z,16.90
2023-06-17T00:35:18.404Z,16.90
2023-06-17T00:36:21.037Z,16.90
2023-06-17T00:37:25.983Z,16.90
2023-06-17T00:38:28.512Z,16.90
2023-06-17T00:39:32.324Z,16.90
2023-06-17T00:40:34.871Z,16.80
2023-06-17T00:41:38.647Z,16.80
2023-06-17T00:42:41.367Z,16.80
2023-06-17T00:43:45.017Z,16.80
2023-06-17T00:44:47.518Z,16.80
2023-06-17T00:45:51.323Z,16.70
2023-06-17T00:46:56.285Z,16.70
2023-06-17T00:48:01.273Z,16.70
2023-06-17T00:49:04.816Z,16.60
2023-06-17T00:50:13.771Z,16.60
2023-06-17T00:51:16.955Z,16.60
2023-06-17T00:52:40.329Z,16.60
2023-06-17T00:53:45.620Z,16.60
2023-06-17T00:54:49.324Z,16.50
2023-06-17T00:55:52.000Z,16.50
2023-06-17T00:56:55.864Z,16.50
2023-06-17T00:57:58.590Z,16.50
2023-06-17T00:59:05.344Z,16.50
2023-06-17T01:00:11.932Z,16.40
2023-06-17T01:01:16.537Z,16.40
2023-06-17T01:02:19.000Z,16.40
2023-06-17T01:03:24.268Z,16.40
2023-06-17T01:04:29.255Z,16.30
2023-06-17T01:05:34.211Z,16.30
2023-06-17T01:06:53.714Z,16.30
2023-06-17T01:08:15.586Z,16.30
2023-06-17T01:09:25.296Z,16.30
2023-06-17T01:10:48.834Z,16.20
2023-06-17T01:11:57.012Z,16.20
2023-06-17T01:13:02.937Z,16.20
2023-06-17T01:14:09.546Z,16.20
2023-06-17T01:15:17.351Z,16.20
2023-06-17T01:16:20.242Z,16.20
2023-06-17T01:17:26.202Z,16.10
2023-06-17T01:18:31.188Z,16.10
2023-06-17T01:19:36.655Z,16.10
2023-06-17T01:20:40.480Z,16.10
2023-06-17T01:21:44.517Z,16.10
2023-06-17T01:22:48.898Z,16.00
2023-06-17T01:23:54.644Z,16.00
2023-06-17T01:25:02.358Z,16.00
2023-06-17T01:26:08.345Z,16.00
2023-06-17T01:27:13.186Z,16.00
2023-06-17T01:28:18.941Z,16.00
2023-06-17T01:29:24.094Z,15.90
2023-06-17T01:30:30.892Z,15.90
2023-06-17T01:31:33.825Z,15.90
2023-06-17T01:32:37.648Z,15.90
2023-06-17T01:33:45.809Z,15.90
2023-06-17T01:34:59.149Z,15.90
2023-06-17T01:36:11.257Z,15.90
2023-06-17T01:37:17.643Z,15.80
2023-06-17T01:38:29.387Z,15.80
2023-06-17T01:39:34.577Z,15.80
2023-06-17T01:40:42.533Z,15.80
2023-06-17T01:41:51.393Z,15.70
2023-06-17T01:42:55.196Z,15.70
2023-06-17T01:44:00.646Z,15.70
2023-06-17T01:45:07.727Z,15.70
2023-06-17T01:46:14.319Z,15.70
2023-06-17T01:47:17.252Z,15.60
2023-06-17T01:48:21.911Z,15.60
2023-06-17T01:49:24.732Z,15.60
2023-06-17T01:50:28.401Z,15.60
2023-06-17T01:51:31.677Z,15.60
2023-06-17T01:52:36.103Z,15.60
2023-06-17T01:53:39.620Z,15.60
2023-06-17T01:54:43.368Z,15.60
2023-06-17T01:55:47.350Z,15.50
2023-06-17T01:56:50.992Z,15.50
2023-06-17T01:57:53.613Z,15.50
2023-06-17T01:58:57.171Z,15.50
2023-06-17T01:59:59.651Z,15.50
2023-06-17T02:01:03.122Z,15.50
2023-06-17T02:02:06.175Z,15.40
2023-06-17T02:03:09.824Z,15.40
2023-06-17T02:04:12.599Z,15.40
2023-06-17T02:05:16.933Z,15.40
2023-06-17T02:06:21.870Z,15.40
2023-06-17T02:07:26.798Z,15.40
2023-06-17T02:08:29.428Z,15.30
2023-06-17T02:09:35.538Z,15.30
2023-06-17T02:10:38.170Z,15.30
2023-06-17T02:11:43.261Z,15.30
2023-06-17T02:12:45.821Z,15.30
2023-06-17T02:13:50.348Z,15.30
2023-06-17T02:14:53.130Z,15.30
2023-06-17T02:15:56.856Z,15.20
2023-06-17T02:16:59.829Z,15.20
2023-06-17T02:18:05.622Z,15.20
2023-06-17T02:19:08.468Z,15.20
2023-06-17T02:20:13.814Z,15.20
2023-06-17T02:21:17.298Z,15.20
2023-06-17T02:22:20.782Z,15.20
2023-06-17T02:23:23.260Z,15.10
2023-06-17T02:24:29.895Z,15.10
2023-06-17T02:25:32.595Z,15.10
2023-06-17T02:26:36.147Z,15.10
2023-06-17T02:27:40.465Z,15.10
2023-06-17T02:28:44.325Z,15.00
2023-06-17T02:29:46.921Z,15.00
2023-06-17T02:30:51.282Z,15.00
2023-06-17T02:31:53.877Z,15.00
2023-06-17T02:32:57.538Z,15.00
2023-06-17T02:34:00.342Z,15.00
2023-06-17T02:35:04.138Z,15.00
2023-06-17T02:36:07.586Z,14.90
2023-06-17T02:37:11.527Z,14.90
2023-06-17T02:38:15.082Z,14.90
2023-06-17T02:39:18.630Z,14.90
2023-06-17T02:40:21.430Z,14.90
2023-06-17T02:41:28.383Z,14.90
2023-06-17T02:42:30.915Z,14.80
2023-06-17T02:43:35.863Z,14.80
2023-06-17T02:44:38.484Z,14.80
2023-06-17T02:45:42.582Z,14.80
2023-06-17T02:46:45.194Z,14.80
2023-06-17T02:47:48.945Z,14.80
2023-06-17T02:48:51.944Z,14.80
2023-06-17T02:49:55.758Z,14.80
2023-06-17T02:50:59.799Z,14.80
2023-06-17T02:52:03.903Z,14.70
2023-06-17T02:53:08.789Z,14.70
2023-06-17T02:54:13.103Z,14.70
2023-06-17T02:55:16.626Z,14.70
2023-06-17T02:56:20.202Z,14.70
2023-06-17T02:57:23.253Z,14.70
2023-06-17T02:58:27.059Z,14.70
2023-06-17T02:59:34.799Z,14.60
2023-06-17T03:00:39.106Z,14.60
2023-06-17T03:01:43.398Z,14.60
2023-06-17T03:02:47.097Z,14.60
2023-06-17T03:03:49.691Z,14.60
2023-06-17T03:04:55.158Z,14.60
2023-06-17T03:05:59.636Z,14.60
2023-06-17T03:07:04.102Z,14.60
2023-06-17T03:08:07.846Z,14.60
2023-06-17T03:09:11.618Z,14.60
2023-06-17T03:10:16.616Z,14.60
2023-06-17T03:11:24.149Z,14.60
2023-06-17T03:12:26.774Z,14.50
2023-06-17T03:13:31.170Z,14.50
2023-06-17T03:14:35.333Z,14.50
2023-06-17T03:15:42.315Z,14.50
2023-06-17T03:16:45.824Z,14.50
2023-06-17T03:17:49.504Z,14.50
2023-06-17T03:18:52.585Z,14.50
2023-06-17T03:19:57.985Z,14.40
2023-06-17T03:21:01.298Z,14.40
2023-06-17T03:22:05.191Z,14.40
2023-06-17T03:23:12.261Z,14.40
2023-06-17T03:24:16.044Z,14.40
2023-06-17T03:25:19.345Z,14.40
2023-06-17T03:26:24.340Z,14.40
2023-06-17T03:27:28.571Z,14.40
2023-06-17T03:28:32.254Z,14.40
2023-06-17T03:29:36.442Z,14.40
2023-06-17T03:30:42.406Z,14.40
2023-06-17T03:31:45.780Z,14.40
2023-06-17T03:32:49.857Z,14.40
2023-06-17T03:33:54.253Z,14.40
2023-06-17T03:34:58.071Z,14.40
2023-06-17T03:36:00.722Z,14.40
2023-06-17T03:37:04.401Z,14.40
2023-06-17T03:38:06.937Z,14.40
2023-06-17T03:39:10.575Z,14.40
2023-06-17T03:40:14.875Z,14.40
2023-06-17T03:41:19.364Z,14.40
2023-06-17T03:42:21.902Z,14.40
2023-06-17T03:43:25.531Z,14.40
2023-06-17T03:44:28.181Z,14.40
2023-06-17T03:45:33.140Z,14.40
2023-06-17T03:46:37.958Z,14.40
2023-06-17T03:47:41.571Z,14.40
2023-06-17T03:48:44.176Z,14.40
2023-06-17T03:49:47.956Z,14.50
2023-06-17T03:50:50.911Z,14.50
2023-06-17T03:51:55.101Z,14.50
2023-06-17T03:52:58.020Z,14.50
2023-06-17T03:54:03.612Z,14.50
2023-06-17T03:55:10.712Z,14.50
2023-06-17T03:56:14.650Z,14.50
2023-06-17T03:57:17.176Z,14.50
2023-06-17T03:58:20.798Z,14.50
2023-06-17T03:59:23.985Z,14.50
2023-06-17T04:00:28.533Z,14.60
2023-06-17T04:01:32.466Z,14.60
2023-06-17T04:02:36.154Z,14.60
2023-06-17T04:03:39.330Z,14.60
2023-06-17T04:04:44.050Z,14.60
2023-06-17T04:05:46.858Z,14.70
2023-06-17T04:06:50.693Z,14.70
2023-06-17T04:07:54.521Z,14.80
2023-06-17T04:08:58.371Z,14.80
2023-06-17T04:10:07.018Z,14.80
2023-06-17T04:11:11.490Z,14.90
2023-06-17T04:12:14.377Z,14.90
2023-06-17T04:13:18.206Z,15.00
2023-06-17T04:14:20.976Z,15.10
2023-06-17T04:15:24.640Z,15.10
2023-06-17T04:16:27.374Z,15.20
2023-06-17T04:17:32.232Z,15.20
2023-06-17T04:18:35.935Z,15.30
2023-06-17T04:19:38.911Z,15.30
2023-06-17T04:20:42.427Z,15.40
2023-06-17T04:21:46.485Z,15.40
2023-06-17T04:22:49.221Z,15.50
2023-06-17T04:23:53.459Z,15.50
2023-06-17T04:24:57.189Z,15.60
2023-06-17T04:26:01.828Z,15.60
2023-06-17T04:27:07.331Z,15.60
2023-06-17T04:28:14.073Z,15.70
2023-06-17T04:29:16.908Z,15.70
2023-06-17T04:30:20.958Z,15.70
2023-06-17T04:31:24.101Z,15.80
2023-06-17T04:32:28.196Z,15.80
2023-06-17T04:33:32.334Z,15.80
2023-06-17T04:34:39.462Z,15.90
2023-06-17T04:35:43.706Z,15.90
2023-06-17T04:36:50.081Z,15.90
2023-06-17T04:37:55.189Z,15.90
2023-06-17T04:38:59.875Z,16.00
2023-06-17T04:40:07.631Z,16.00
2023-06-17T04:41:12.650Z,16.00
2023-06-17T04:42:15.864Z,16.10
2023-06-17T04:43:19.485Z,16.20
2023-06-17T04:44:22.226Z,16.20
2023-06-17T04:45:25.973Z,16.30
2023-06-17T04:46:33.735Z,16.40
2023-06-17T04:47:37.891Z,16.50
2023-06-17T04:48:41.818Z,16.60
2023-06-17T04:49:45.837Z,16.70
2023-06-17T04:50:49.651Z,16.90
2023-06-17T04:51:53.822Z,17.00
2023-06-17T04:53:04.856Z,17.10
2023-06-17T04:54:10.565Z,17.30
2023-06-17T04:55:15.105Z,17.40
2023-06-17T04:56:21.117Z,17.60
2023-06-17T04:57:24.156Z,17.80
2023-06-17T04:58:29.734Z,18.00
2023-06-17T04:59:43.374Z,18.10
2023-06-17T05:00:47.547Z,18.30
2023-06-17T05:01:59.915Z,18.50
2023-06-17T05:03:04.185Z,18.70
2023-06-17T05:04:08.928Z,18.80
2023-06-17T05:05:12.654Z,19.00
2023-06-17T05:06:15.240Z,19.20
2023-06-17T05:07:18.813Z,19.40
2023-06-17T05:08:21.257Z,19.50
2023-06-17T05:09:24.887Z,19.70
2023-06-17T05:10:27.475Z,19.80
2023-06-17T05:11:31.000Z,20.00
2023-06-17T05:12:33.748Z,20.20
2023-06-17T05:13:37.406Z,20.40
2023-06-17T05:14:39.867Z,20.50
2023-06-17T05:15:43.467Z,20.70
2023-06-17T05:16:46.935Z,20.80
2023-06-17T05:17:49.720Z,21.00
2023-06-17T05:18:53.328Z,21.10
2023-06-17T05:19:57.503Z,21.30
2023-06-17T05:21:04.506Z,21.40
2023-06-17T05:22:08.051Z,21.60
2023-06-17T05:23:11.707Z,21.70
2023-06-17T05:24:14.677Z,21.90
2023-06-17T05:25:18.475Z,22.00
2023-06-17T05:26:21.122Z,22.10
2023-06-17T05:27:25.300Z,22.30
2023-06-17T05:28:28.989Z,22.50
2023-06-17T05:29:32.462Z,22.60
2023-06-17T05:30:35.172Z,22.80
2023-06-17T05:31:41.482Z,22.90
2023-06-17T05:32:44.064Z,23.00
2023-06-17T05:33:47.990Z,23.20
2023-06-17T05:34:50.646Z,23.40
2023-06-17T05:35:56.077Z,23.50
2023-06-17T05:36:58.653Z,23.70
2023-06-17T05:38:05.153Z,23.80
2023-06-17T05:39:07.808Z,24.00
2023-06-17T05:40:13.213Z,24.20
2023-06-17T05:41:15.854Z,24.30
2023-06-17T05:42:19.409Z,24.50
2023-06-17T05:43:22.427Z,24.70
2023-06-17T05:44:26.166Z,24.80
2023-06-17T05:45:29.108Z,25.00
2023-06-17T05:46:33.573Z,25.10
2023-06-17T05:47:36.683Z,25.20
2023-06-17T05:48:40.309Z,25.30
2023-06-17T05:49:42.966Z,25.40
2023-06-17T05:50:46.633Z,25.50
2023-06-17T05:51:50.971Z,25.60
2023-06-17T05:52:54.727Z,25.80
2023-06-17T05:53:57.456Z,25.90
2023-06-17T05:55:01.107Z,26.10
2023-06-17T05:56:04.226Z,26.20
2023-06-17T05:57:08.017Z,26.40
2023-06-17T05:58:10.642Z,26.50
2023-06-17T05:59:20.266Z,26.70
2023-06-17T06:00:24.217Z,26.90
2023-06-17T06:01:30.126Z,27.00
2023-06-17T06:02:33.444Z,27.20
2023-06-17T06:03:37.076Z,27.30
2023-06-17T06:04:39.646Z,27.50
2023-06-17T06:05:43.316Z,27.60
2023-06-17T06:06:45.783Z,27.70
2023-06-17T06:07:50.743Z,27.90
2023-06-17T06:08:53.216Z,28.00
2023-06-17T06:09:56.716Z,28.20
2023-06-17T06:11:00.551Z,28.30
2023-06-17T06:12:05.246Z,28.50
2023-06-17T06:13:07.868Z,28.60
2023-06-17T06:14:11.545Z,28.70
2023-06-17T06:15:14.826Z,28.90
2023-06-17T06:16:18.628Z,29.00
2023-06-17T06:17:21.414Z,29.10
2023-06-17T06:18:25.123Z,29.30
2023-06-17T06:19:28.485Z,29.40
2023-06-17T06:20:32.016Z,29.60
2023-06-17T06:21:35.883Z,29.70
2023-06-17T06:22:39.060Z,29.80
2023-06-17T06:23:44.927Z,30.00
2023-06-17T06:24:47.612Z,30.10
2023-06-17T06:25:51.276Z,30.30
2023-06-17T06:26:53.870Z,30.40
2023-06-17T06:27:59.765Z,30.60
2023-06-17T06:29:04.215Z,30.70
2023-06-17T06:30:09.731Z,30.70
2023-06-17T06:31:16.851Z,30.80
2023-06-17T06:32:19.385Z,30.80
2023-06-17T06:33:24.097Z,30.80
2023-06-17T06:34:27.103Z,30.80
2023-06-17T06:35:30.961Z,30.90
2023-06-17T06:36:33.615Z,31.00
2023-06-17T06:37:37.362Z,31.00
2023-06-17T06:38:40.242Z,31.00
2023-06-17T06:39:45.656Z,31.00
2023-06-17T06:40:49.259Z,31.10
2023-06-17T06:41:52.966Z,31.10
2023-06-17T06:43:24.421Z,31.20
2023-06-17T06:44:31.483Z,31.30
2023-06-17T06:45:35.130Z,31.30
2023-06-17T06:46:38.076Z,31.40
2023-06-17T06:47:41.863Z,31.50
2023-06-17T06:48:44.462Z,31.60
2023-06-17T06:49:47.976Z,31.70
2023-06-17T06:50:51.133Z,31.90
2023-06-17T06:51:56.660Z,32.00
2023-06-17T06:53:00.178Z,32.10
2023-06-17T06:54:06.370Z,32.20
2023-06-17T06:55:10.935Z,32.30
2023-06-17T06:56:15.918Z,32.30
2023-06-17T06:57:19.284Z,32.30
2023-06-17T06:58:23.011Z,32.40
2023-06-17T06:59:26.580Z,32.50
2023-06-17T07:00:30.682Z,32.60
2023-06-17T07:01:34.561Z,32.80
2023-06-17T07:02:39.500Z,33.00
2023-06-17T07:03:42.980Z,33.10
2023-06-17T07:04:47.155Z,33.40
2023-06-17T07:05:51.358Z,33.50
2023-06-17T07:06:55.421Z,33.70
2023-06-17T07:08:02.864Z,33.90
2023-06-17T07:09:06.865Z,34.10
2023-06-17T07:10:11.243Z,34.30
2023-06-17T07:11:14.896Z,34.50
2023-06-17T07:12:17.721Z,34.70
2023-06-17T07:13:21.394Z,34.90
2023-06-17T07:14:26.886Z,35.10
2023-06-17T07:15:30.489Z,35.20
2023-06-17T07:16:33.170Z,35.40
2023-06-17T07:17:37.067Z,35.50
2023-06-17T07:18:39.795Z,35.70
2023-06-17T07:19:43.519Z,35.80
2023-06-17T07:20:46.390Z,35.90
2023-06-17T07:21:50.974Z,36.10
2023-06-17T07:22:53.555Z,36.30
2023-06-17T07:23:57.169Z,36.40
2023-06-17T07:25:00.046Z,36.50
2023-06-17T07:26:04.979Z,36.70
2023-06-17T07:27:07.596Z,36.80
2023-06-17T07:28:12.211Z,37.00
2023-06-17T07:29:15.885Z,37.10
2023-06-17T07:30:19.813Z,37.30
2023-06-17T07:31:24.527Z,37.40
2023-06-17T07:32:28.429Z,37.60
2023-06-17T07:33:32.723Z,37.70
2023-06-17T07:34:36.806Z,37.80
2023-06-17T07:35:40.659Z,38.00
2023-06-17T07:36:44.649Z,38.10
2023-06-17T07:37:47.952Z,38.20
2023-06-17T07:38:51.614Z,38.40
2023-06-17T07:39:54.288Z,38.60
2023-06-17T07:40:57.794Z,38.70
2023-06-17T07:42:02.200Z,38.90
2023-06-17T07:43:05.945Z,39.10
2023-06-17T07:44:08.680Z,39.30
2023-06-17T07:45:13.489Z,39.40
2023-06-17T07:46:16.128Z,39.60
2023-06-17T07:47:20.350Z,39.70
2023-06-17T07:48:23.052Z,39.80
2023-06-17T07:49:26.841Z,40.00
2023-06-17T07:50:29.754Z,40.10
2023-06-17T07:51:33.194Z,40.30
2023-06-17T07:52:36.359Z,40.40
2023-06-17T07:53:40.125Z,40.60
2023-06-17T07:54:42.646Z,40.70
2023-06-17T07:55:47.071Z,40.90
2023-06-17T07:56:49.746Z,41.00
2023-06-17T07:57:55.772Z,41.10
2023-06-17T07:58:58.503Z,41.20
2023-06-17T08:00:02.116Z,41.30
2023-06-17T08:01:16.448Z,41.40
2023-06-17T08:02:19.262Z,41.40
2023-06-17T08:03:23.511Z,41.50
2023-06-17T08:04:26.570Z,41.50
2023-06-17T08:05:30.259Z,41.60
2023-06-17T08:06:33.805Z,41.60
2023-06-17T08:07:37.083Z,41.70
2023-06-17T08:08:40.696Z,41.90
2023-06-17T08:09:43.316Z,41.90
2023-06-17T08:10:47.089Z,42.00
2023-06-17T08:11:49.570Z,42.00
2023-06-17T08:12:54.575Z,42.10
2023-06-17T08:13:57.122Z,42.10
2023-06-17T08:15:02.315Z,42.10
2023-06-17T08:16:06.267Z,42.20
2023-06-17T08:17:08.929Z,42.20
2023-06-17T08:18:12.512Z,42.30
2023-06-17T08:19:15.208Z,42.40
2023-06-17T08:20:19.316Z,42.50
2023-06-17T08:21:22.243Z,42.60
2023-06-17T08:22:26.343Z,42.70
2023-06-17T08:23:28.963Z,42.80
2023-06-17T08:24:32.767Z,43.00
2023-06-17T08:25:35.586Z,43.20
2023-06-17T08:26:39.368Z,43.30
2023-06-17T08:27:43.788Z,43.50
2023-06-17T08:28:48.708Z,43.70
2023-06-17T08:29:51.348Z,43.80
2023-06-17T08:30:55.031Z,43.90
2023-06-17T08:31:57.633Z,44.00
2023-06-17T08:33:01.430Z,44.10
2023-06-17T08:34:04.013Z,44.10
2023-06-17T08:35:08.657Z,44.20
2023-06-17T08:36:11.192Z,44.30
2023-06-17T08:37:14.663Z,44.40
2023-06-17T08:38:18.589Z,44.50
2023-06-17T08:39:21.435Z,44.60
2023-06-17T08:40:25.800Z,44.70
2023-06-17T08:41:29.429Z,44.80
2023-06-17T08:42:33.487Z,44.90
2023-06-17T08:43:38.604Z,45.10
2023-06-17T08:44:45.761Z,45.20
2023-06-17T08:45:49.757Z,45.40
2023-06-17T08:46:55.440Z,45.50
2023-06-17T08:47:59.436Z,45.60
2023-06-17T08:49:04.685Z,45.70
2023-06-17T08:50:10.840Z,45.70
2023-06-17T08:51:14.298Z,45.70
2023-06-17T08:52:17.996Z,45.70
2023-06-17T08:53:21.369Z,45.70
2023-06-17T08:54:27.021Z,45.70
2023-06-17T08:55:30.470Z,45.70
2023-06-17T08:56:34.356Z,45.70
2023-06-17T08:57:37.060Z,45.70
2023-06-17T08:58:42.983Z,45.70
2023-06-17T08:59:47.774Z,45.60
2023-06-17T09:00:52.296Z,45.60
2023-06-17T09:01:55.352Z,45.60
2023-06-17T09:03:02.275Z,45.70
2023-06-17T09:04:05.844Z,45.70
2023-06-17T09:05:10.092Z,45.80
2023-06-17T09:06:21.265Z,45.90
2023-06-17T09:07:25.112Z,46.10
2023-06-17T09:08:28.584Z,46.20
2023-06-17T09:09:32.117Z,46.30
2023-06-17T09:10:44.380Z,46.40
2023-06-17T09:11:52.691Z,46.50
2023-06-17T09:13:00.893Z,46.50
2023-06-17T09:14:04.857Z,46.50
2023-06-17T09:15:18.803Z,46.60
2023-06-17T09:16:26.886Z,46.70
2023-06-17T09:17:32.631Z,46.80
2023-06-17T09:18:36.257Z,46.80
2023-06-17T09:19:42.550Z,46.90
2023-06-17T09:20:52.757Z,47.00
2023-06-17T09:21:57.139Z,47.00
2023-06-17T09:22:59.907Z,47.10
2023-06-17T09:24:06.494Z,47.10
2023-06-17T09:25:14.794Z,47.10
2023-06-17T09:26:18.502Z,47.10
2023-06-17T09:27:27.155Z,47.20
2023-06-17T09:28:31.199Z,47.20
2023-06-17T09:29:37.633Z,47.20
2023-06-17T09:30:44.721Z,47.30
2023-06-17T09:31:52.277Z,47.40
2023-06-17T09:32:56.949Z,47.50
2023-06-17T09:34:04.726Z,47.60
2023-06-17T09:35:15.901Z,47.70
2023-06-17T09:36:19.083Z,47.70
2023-06-17T09:37:22.809Z,47.80
2023-06-17T09:38:25.622Z,47.90
2023-06-17T09:39:34.805Z,47.90
2023-06-17T09:40:39.078Z,48.00
2023-06-17T09:41:43.762Z,48.00
2023-06-17T09:42:47.718Z,47.90
2023-06-17T09:43:52.309Z,47.80
2023-06-17T09:44:55.086Z,47.80
2023-06-17T09:46:06.313Z,47.70
2023-06-17T09:47:10.092Z,47.70
2023-06-17T09:48:13.669Z,47.70
2023-06-17T09:49:17.618Z,47.70
2023-06-17T09:50:21.749Z,47.70
2023-06-17T09:51:26.584Z,47.80
2023-06-17T09:52:31.784Z,47.80
2023-06-17T09:53:38.307Z,47.90
2023-06-17T09:54:43.907Z,47.90
2023-06-17T09:55:48.099Z,47.80
2023-06-17T09:56:53.515Z,47.80
2023-06-17T09:57:59.409Z,47.80
2023-06-17T09:59:02.147Z,47.80
2023-06-17T10:00:11.382Z,47.80
2023-06-17T10:01:17.217Z,47.80
2023-06-17T10:02:21.142Z,47.80
2023-06-17T10:03:24.033Z,47.80
2023-06-17T10:04:27.652Z,47.80
2023-06-17T10:05:30.141Z,47.70
2023-06-17T10:06:36.716Z,47.70
2023-06-17T10:07:42.485Z,47.60
2023-06-17T10:08:49.654Z,47.50
2023-06-17T10:09:53.220Z,47.40
2023-06-17T10:11:00.761Z,47.40
2023-06-17T10:12:07.887Z,47.40
2023-06-17T10:13:12.252Z,47.40
2023-06-17T10:14:23.527Z,47.50
2023-06-17T10:15:27.256Z,47.60
2023-06-17T10:16:37.433Z,47.70
2023-06-17T10:17:43.144Z,47.80
2023-06-17T10:18:50.879Z,47.90
2023-06-17T10:19:55.222Z,48.00
2023-06-17T10:21:01.298Z,48.10
2023-06-17T10:22:09.445Z,48.20
2023-06-17T10:23:14.000Z,48.20
2023-06-17T10:24:18.204Z,48.20
2023-06-17T10:25:22.366Z,48.20
2023-06-17T10:26:25.144Z,48.20
2023-06-17T10:27:28.834Z,48.10
2023-06-17T10:28:45.816Z,48.10
2023-06-17T10:29:51.085Z,48.10
2023-06-17T10:30:53.657Z,48.10
2023-06-17T10:32:10.756Z,48.10
2023-06-17T10:33:13.579Z,48.10
2023-06-17T10:34:19.029Z,48.10
2023-06-17T10:35:21.656Z,48.10
2023-06-17T10:36:26.483Z,48.10
2023-06-17T10:37:29.241Z,48.10
2023-06-17T10:38:34.659Z,48.10
2023-06-17T10:39:37.165Z,48.10
2023-06-17T10:40:52.099Z,48.20
2023-06-17T10:41:58.724Z,48.30
2023-06-17T10:43:19.652Z,48.30
2023-06-17T10:44:44.831Z,48.40
2023-06-17T10:45:53.407Z,48.40
2023-06-17T10:46:59.071Z,48.30
2023-06-17T10:48:20.913Z,48.40
2023-06-17T10:49:25.070Z,48.40
2023-06-17T10:50:27.649Z,48.40
2023-06-17T10:51:41.391Z,48.40
2023-06-17T10:53:03.894Z,48.40
2023-06-17T10:54:07.464Z,48.40
2023-06-17T10:55:14.266Z,48.20
2023-06-17T10:56:17.764Z,48.10
2023-06-17T10:57:34.176Z,47.90
2023-06-17T10:58:45.815Z,47.60
2023-06-17T10:59:48.311Z,47.40
2023-06-17T11:01:07.813Z,47.20
2023-06-17T11:02:11.879Z,47.10
2023-06-17T11:03:17.650Z,47.00
2023-06-17T11:04:21.034Z,47.00
2023-06-17T11:05:25.055Z,47.00
2023-06-17T11:06:34.975Z,47.00
2023-06-17T11:07:37.664Z,47.00
2023-06-17T11:08:41.319Z,46.90
2023-06-17T11:09:44.108Z,46.90
2023-06-17T11:10:47.929Z,46.90
2023-06-17T11:11:50.842Z,46.90
2023-06-17T11:12:55.600Z,46.90
2023-06-17T11:13:58.223Z,47.00
2023-06-17T11:15:04.706Z,47.00
2023-06-17T11:16:08.593Z,47.10
2023-06-17T11:17:13.724Z,47.10
2023-06-17T11:18:16.463Z,47.20
2023-06-17T11:19:20.215Z,47.20
2023-06-17T11:20:23.179Z,47.20
2023-06-17T11:21:27.074Z,47.20
2023-06-17T11:22:30.004Z,47.20
2023-06-17T11:23:34.535Z,47.20
2023-06-17T11:24:37.529Z,47.10
2023-06-17T11:25:45.634Z,47.10
2023-06-17T11:26:49.458Z,47.00
2023-06-17T11:27:53.184Z,47.00
2023-06-17T11:28:55.725Z,47.00
2023-06-17T11:29:59.609Z,47.00
2023-06-17T11:31:03.611Z,46.90
2023-06-17T11:32:08.438Z,46.80
2023-06-17T11:33:13.951Z,46.70
2023-06-17T11:34:17.892Z,46.60
2023-06-17T11:35:22.957Z,46.60
2023-06-17T11:36:27.251Z,46.50
2023-06-17T11:37:31.650Z,46.40
2023-06-17T11:38:34.244Z,46.30
2023-06-17T11:39:39.841Z,46.30
2023-06-17T11:40:43.432Z,46.20
2023-06-17T11:41:47.847Z,46.10
2023-06-17T11:42:51.203Z,46.00
2023-06-17T11:43:54.936Z,45.90
2023-06-17T11:44:57.675Z,45.70
2023-06-17T11:46:03.358Z,45.60
2023-06-17T11:47:07.952Z,45.50
2023-06-17T11:48:14.583Z,45.40
2023-06-17T11:49:17.128Z,45.40
2023-06-17T11:50:20.941Z,45.30
2023-06-17T11:51:25.136Z,45.30
2023-06-17T11:52:29.194Z,45.30
2023-06-17T11:53:41.194Z,45.40
2023-06-17T11:54:47.239Z,45.40
2023-06-17T11:55:50.773Z,45.40
2023-06-17T11:56:55.128Z,45.50
2023-06-17T11:57:58.743Z,45.50
2023-06-17T11:59:02.489Z,45.50
2023-06-17T12:00:11.147Z,45.50
2023-06-17T12:01:17.538Z,45.40
2023-06-17T12:02:20.541Z,45.40
2023-06-17T12:03:25.822Z,45.40
2023-06-17T12:04:31.497Z,45.30
2023-06-17T12:05:35.262Z,45.20
2023-06-17T12:06:37.991Z,45.20
2023-06-17T12:07:42.521Z,45.10
2023-06-17T12:08:45.668Z,45.00
2023-06-17T12:09:53.291Z,45.00
2023-06-17T12:10:55.947Z,44.90
2023-06-17T12:12:02.857Z,44.80
2023-06-17T12:13:05.502Z,44.80
2023-06-17T12:14:09.439Z,44.70
2023-06-17T12:15:16.900Z,44.70
2023-06-17T12:16:31.703Z,44.70
2023-06-17T12:17:41.886Z,44.70
2023-06-17T12:18:51.782Z,44.70
2023-06-17T12:20:01.520Z,44.70
2023-06-17T12:21:12.045Z,44.70
2023-06-17T12:22:15.406Z,44.70
2023-06-17T12:23:19.233Z,44.80
2023-06-17T12:24:22.073Z,44.80
2023-06-17T12:25:26.140Z,44.80
2023-06-17T12:26:28.888Z,44.90
2023-06-17T12:27:32.865Z,45.00
2023-06-17T12:28:35.527Z,45.00
2023-06-17T12:29:39.009Z,45.10
2023-06-17T12:30:41.636Z,45.10
2023-06-17T12:31:45.700Z,45.10
2023-06-17T12:32:48.557Z,45.00
2023-06-17T12:33:54.176Z,45.00
2023-06-17T12:34:56.762Z,45.00
2023-06-17T12:36:00.664Z,45.00
2023-06-17T12:37:04.090Z,45.00
2023-06-17T12:38:09.240Z,45.10
2023-06-17T12:39:12.028Z,45.10
2023-06-17T12:40:15.500Z,45.20
2023-06-17T12:41:18.644Z,45.20
2023-06-17T12:42:22.863Z,45.30
2023-06-17T12:43:25.651Z,45.30
2023-06-17T12:44:29.229Z,45.40
2023-06-17T12:45:31.939Z,45.50
2023-06-17T12:46:36.607Z,45.50
2023-06-17T12:47:39.870Z,45.50
2023-06-17T12:48:43.573Z,45.50
2023-06-17T12:49:47.929Z,45.60
2023-06-17T12:50:51.578Z,45.60
2023-06-17T12:51:54.134Z,45.70
2023-06-17T12:52:57.716Z,45.70
2023-06-17T12:54:00.332Z,45.70
2023-06-17T12:55:06.065Z,45.70
2023-06-17T12:56:09.009Z,45.70
2023-06-17T12:57:15.638Z,45.70
2023-06-17T12:58:18.730Z,45.70
2023-06-17T12:59:22.843Z,45.60
2023-06-17T13:00:26.469Z,45.60
2023-06-17T13:01:28.978Z,45.60
2023-06-17T13:02:33.665Z,45.60
2023-06-17T13:03:37.958Z,45.60
2023-06-17T13:04:42.277Z,45.50
2023-06-17T13:05:47.977Z,45.50
2023-06-17T13:06:51.590Z,45.40
2023-06-17T13:07:54.863Z,45.30
2023-06-17T13:08:59.020Z,45.20
2023-06-17T13:10:01.532Z,45.10
2023-06-17T13:11:05.055Z,45.00
2023-06-17T13:12:08.658Z,44.90
2023-06-17T13:13:12.412Z,44.80
2023-06-17T13:14:16.056Z,44.60
2023-06-17T13:15:18.724Z,44.40
2023-06-17T13:16:22.450Z,44.30
2023-06-17T13:17:25.057Z,44.10
2023-06-17T13:18:29.235Z,44.00
2023-06-17T13:19:32.246Z,43.80
2023-06-17T13:20:36.635Z,43.70
2023-06-17T13:21:40.823Z,43.60
2023-06-17T13:22:44.613Z,43.50
2023-06-17T13:23:47.205Z,43.50
2023-06-17T13:24:52.140Z,43.30
2023-06-17T13:25:54.905Z,43.20
2023-06-17T13:26:58.898Z,43.10
2023-06-17T13:28:01.561Z,43.00
2023-06-17T13:29:05.336Z,42.90
2023-06-17T13:30:10.239Z,42.80
2023-06-17T13:31:13.773Z,42.70
2023-06-17T13:32:19.313Z,42.50
2023-06-17T13:33:23.470Z,42.50
2023-06-17T13:34:26.798Z,42.30
2023-06-17T13:35:30.412Z,42.30
2023-06-17T13:36:33.130Z,42.20
2023-06-17T13:37:38.164Z,42.10
2023-06-17T13:38:40.703Z,42.10
2023-06-17T13:39:44.999Z,42.00
2023-06-17T13:40:47.604Z,41.90
2023-06-17T13:41:51.422Z,41.90
2023-06-17T13:42:55.042Z,41.80
2023-06-17T13:43:58.266Z,41.80
2023-06-17T13:45:01.873Z,41.70
2023-06-17T13:46:06.035Z,41.60
2023-06-17T13:47:10.011Z,41.60
2023-06-17T13:48:13.700Z,41.50
2023-06-17T13:49:16.376Z,41.50
2023-06-17T13:50:20.129Z,41.40
2023-06-17T13:51:23.055Z,41.30
2023-06-17T13:52:26.964Z,41.20